Terminal Aerodrome Forecast
Issued by NWS

Home | Current Version | Previous Version | Text Only | Print | Product List | Glossary On
Versions: 1 2 3 4 5 6 7 8 9 10 11 12 13 14 15 16 17
000
FTUS44 KLIX 140500
TAFMCB
TAF
KMCB 140522Z 1406/1506 VRB02KT P6SM SKC
      TEMPO 1409/1413 5SM BR
     FM141400 23005KT P6SM SCT035 SCT250 PROB30 1420/1424 2SM TSRA
      BKN030CB
     FM150100 VRB03KT P6SM FEW110 SCT250=

USA.gov is the U.S. government's official web portal to all federal, state and local government web resources and services.